Time;durP1;ratioP1;P1;durP2;ratioP2;P2;SDS_P1;SDS_P2;PMS_P1;PMS_P2;Temp;Humidity;BMP_temperature;BMP_pressure;BME280_temperature;BME280_humidity;BME280_pressure;Samples;Min_cycle;Max_cycle;Signal;HPM_P1;HPM_P2
2021/07/04 00:00:26;;;;;;;7.43;5.80;;;16.30;99.90;;;;;;5082066;28;20219;-80
2021/07/04 00:02:57;;;;;;;7.47;6.03;;;16.20;99.90;;;;;;5080116;28;20244;-80
2021/07/04 00:05:29;;;;;;;6.47;5.77;;;16.20;99.90;;;;;;5078489;28;20158;-80
2021/07/04 00:07:55;;;;;;;7.57;5.90;;;16.20;99.90;;;;;;5078724;28;20240;-80
2021/07/04 00:10:26;;;;;;;7.40;6.03;;;16.20;99.90;;;;;;5078252;28;20598;-80
2021/07/04 00:12:52;;;;;;;7.43;6.10;;;16.20;99.90;;;;;;5076642;28;20172;-80
2021/07/04 00:15:20;;;;;;;8.10;5.80;;;16.20;99.90;;;;;;5076255;28;20181;-80
2021/07/04 00:17:46;;;;;;;6.40;5.73;;;16.20;99.90;;;;;;5076729;28;20615;-80
2021/07/04 00:20:14;;;;;;;6.33;5.73;;;16.20;99.90;;;;;;5075655;28;20223;-80
2021/07/04 00:22:42;;;;;;;6.63;5.80;;;16.20;99.90;;;;;;5076511;28;20534;-80
2021/07/04 00:25:10;;;;;;;6.77;5.60;;;16.20;99.90;;;;;;5085168;28;20175;-80
2021/07/04 00:27:36;;;;;;;6.63;5.83;;;16.20;99.90;;;;;;5079730;28;20226;-80
2021/07/04 00:30:07;;;;;;;6.57;5.50;;;16.10;99.90;;;;;;5079375;28;20209;-80
2021/07/04 00:32:32;;;;;;;5.63;5.13;;;16.20;99.90;;;;;;5078532;28;20584;-80
2021/07/04 00:34:58;;;;;;;6.33;5.73;;;16.20;99.90;;;;;;5079140;28;20653;-80
2021/07/04 00:37:24;;;;;;;6.97;6.10;;;16.20;99.90;;;;;;5079344;28;20646;-80
2021/07/04 00:39:49;;;;;;;7.17;6.03;;;16.30;99.90;;;;;;5077878;28;20212;-80
2021/07/04 00:42:15;;;;;;;6.60;5.97;;;16.20;99.90;;;;;;5076490;28;20180;-80
2021/07/04 00:44:41;;;;;;;6.53;5.70;;;16.20;99.90;;;;;;5076253;28;20639;-80
2021/07/04 00:47:07;;;;;;;6.20;5.60;;;16.20;99.90;;;;;;5077898;28;20173;-80
2021/07/04 00:49:33;;;;;;;6.77;6.00;;;16.10;99.90;;;;;;5078126;28;20573;-80
2021/07/04 00:51:59;;;;;;;7.57;5.53;;;16.10;99.90;;;;;;5078300;28;20183;-80
2021/07/04 00:54:26;;;;;;;6.23;5.40;;;16.00;99.90;;;;;;5079812;28;20177;-80
2021/07/04 00:56:51;;;;;;;7.10;5.60;;;16.00;99.90;;;;;;5079348;28;20307;-80
2021/07/04 00:59:18;;;;;;;10.37;6.33;;;15.90;99.90;;;;;;5080157;28;20262;-80
2021/07/04 01:01:43;;;;;;;7.80;6.40;;;15.90;99.90;;;;;;5079514;28;20184;-80
2021/07/04 01:04:09;;;;;;;6.60;5.70;;;16.00;99.90;;;;;;5078184;28;20513;-80
2021/07/04 01:06:35;;;;;;;6.63;5.83;;;16.00;99.90;;;;;;5079267;28;20223;-80
2021/07/04 01:09:02;;;;;;;9.17;5.90;;;15.90;99.90;;;;;;5078965;28;20304;-80
2021/07/04 01:11:27;;;;;;;11.83;6.63;;;16.00;99.90;;;;;;5077887;28;20250;-80
2021/07/04 01:13:53;;;;;;;8.33;6.00;;;16.00;99.90;;;;;;5080527;28;20172;-80
2021/07/04 01:16:19;;;;;;;6.97;6.27;;;16.00;99.90;;;;;;5079563;28;20181;-80
2021/07/04 01:18:45;;;;;;;10.43;6.07;;;16.00;99.90;;;;;;5077933;28;20204;-80
2021/07/04 01:21:12;;;;;;;8.27;6.23;;;16.00;99.90;;;;;;5080736;28;20192;-80
2021/07/04 01:23:37;;;;;;;6.60;5.90;;;16.00;99.90;;;;;;5079072;28;20583;-80
2021/07/04 01:26:03;;;;;;;6.83;6.13;;;15.90;99.90;;;;;;5077476;28;20234;-80
2021/07/04 01:28:29;;;;;;;6.70;5.50;;;16.00;99.90;;;;;;5077585;28;20308;-80
2021/07/04 01:31:00;;;;;;;7.60;6.30;;;15.90;99.90;;;;;;5077788;28;20184;-79
2021/07/04 01:33:27;;;;;;;7.83;6.03;;;16.00;99.90;;;;;;5078634;28;20187;-80
2021/07/04 01:35:53;;;;;;;7.47;5.67;;;16.00;99.90;;;;;;5078509;28;20241;-80
2021/07/04 01:38:19;;;;;;;6.47;5.73;;;15.90;99.90;;;;;;5077663;28;20197;-80
2021/07/04 01:40:46;;;;;;;6.27;5.20;;;15.90;99.90;;;;;;5079409;28;20207;-80
2021/07/04 01:43:11;;;;;;;8.67;5.40;;;15.90;99.90;;;;;;5078134;28;20177;-80
2021/07/04 01:45:39;;;;;;;6.90;5.53;;;15.90;99.90;;;;;;5079139;28;20173;-80
2021/07/04 01:48:06;;;;;;;7.70;5.90;;;16.00;99.90;;;;;;5080637;28;20176;-80
2021/07/04 01:50:36;;;;;;;7.00;6.00;;;16.00;99.90;;;;;;5081259;28;20248;-80
2021/07/04 01:53:02;;;;;;;7.17;5.53;;;16.00;99.90;;;;;;5081031;28;20173;-80
2021/07/04 01:55:28;;;;;;;8.00;6.07;;;16.00;99.90;;;;;;5077337;28;20185;-80
2021/07/04 01:57:54;;;;;;;8.23;5.80;;;15.90;99.90;;;;;;5078087;28;20262;-80
2021/07/04 02:00:24;;;;;;;8.03;6.07;;;15.90;99.90;;;;;;5078058;28;20200;-80
2021/07/04 02:02:53;;;;;;;7.20;6.47;;;15.90;99.90;;;;;;5079547;28;20177;-79
2021/07/04 02:05:19;;;;;;;7.00;5.93;;;15.80;99.90;;;;;;5076676;28;20176;-80
2021/07/04 02:07:45;;;;;;;8.43;6.23;;;15.80;99.90;;;;;;5077123;28;20571;-80
2021/07/04 02:10:15;;;;;;;6.83;5.73;;;15.80;99.90;;;;;;5078371;28;20257;-80
2021/07/04 02:12:41;;;;;;;7.40;5.97;;;15.80;99.90;;;;;;5077125;28;20623;-80
2021/07/04 02:15:12;;;;;;;7.07;5.70;;;15.80;99.90;;;;;;5075213;28;20272;-80
2021/07/04 02:17:38;;;;;;;7.47;5.93;;;15.70;99.90;;;;;;5074686;28;20276;-80
2021/07/04 02:20:20;;;;;;;6.17;5.57;;;15.80;99.90;;;;;;5079024;28;20236;-80
2021/07/04 02:22:46;;;;;;;7.20;6.20;;;15.80;99.90;;;;;;5077760;28;20157;-80
2021/07/04 02:25:11;;;;;;;7.73;5.70;;;15.80;99.90;;;;;;5075055;28;20207;-81
2021/07/04 02:27:37;;;;;;;6.27;5.27;;;15.70;99.90;;;;;;5075233;28;20254;-81
2021/07/04 02:30:04;;;;;;;7.70;5.70;;;15.80;99.90;;;;;;5073336;28;20197;-81
2021/07/04 02:32:30;;;;;;;6.20;5.37;;;15.70;99.90;;;;;;5083105;28;20181;-81
2021/07/04 02:34:56;;;;;;;6.63;5.60;;;15.70;99.90;;;;;;5079289;28;20195;-80
2021/07/04 02:37:21;;;;;;;6.63;5.90;;;15.80;99.90;;;;;;5079539;28;20208;-81
2021/07/04 02:39:47;;;;;;;6.10;5.00;;;15.70;99.90;;;;;;5078834;28;20749;-80
2021/07/04 02:42:13;;;;;;;7.13;5.77;;;15.70;99.90;;;;;;5078170;28;20181;-81
2021/07/04 02:44:38;;;;;;;5.90;5.30;;;15.70;99.90;;;;;;5079457;28;20252;-81
2021/07/04 02:47:04;;;;;;;6.03;5.43;;;15.60;99.90;;;;;;5078038;28;20188;-81
2021/07/04 02:49:30;;;;;;;6.50;5.43;;;15.70;99.90;;;;;;5079304;28;20197;-81
2021/07/04 02:51:55;;;;;;;8.03;5.87;;;15.70;99.90;;;;;;5078603;28;20631;-81
2021/07/04 02:54:21;;;;;;;9.60;5.93;;;15.70;99.90;;;;;;5081830;28;20185;-80
2021/07/04 02:56:46;;;;;;;7.13;5.83;;;15.70;99.90;;;;;;5079230;28;20185;-81
2021/07/04 02:59:12;;;;;;;8.20;5.53;;;15.70;99.90;;;;;;5077710;28;20228;-81
2021/07/04 03:01:38;;;;;;;7.20;6.20;;;15.60;99.90;;;;;;5076550;28;20185;-81
2021/07/04 03:04:03;;;;;;;7.07;5.60;;;15.70;99.90;;;;;;5076338;28;20185;-81
2021/07/04 03:06:29;;;;;;;7.77;5.60;;;15.70;99.90;;;;;;5077599;28;20173;-81
2021/07/04 03:08:55;;;;;;;6.70;5.63;;;15.70;99.90;;;;;;5078486;28;20671;-81
2021/07/04 03:11:20;;;;;;;6.60;5.63;;;15.70;99.90;;;;;;5080312;28;20177;-81
2021/07/04 03:13:46;;;;;;;7.37;5.70;;;15.70;99.90;;;;;;5081325;28;20243;-81
2021/07/04 03:16:11;;;;;;;6.43;5.77;;;15.70;99.90;;;;;;5080841;28;20180;-81
2021/07/04 03:18:37;;;;;;;7.30;5.40;;;15.70;99.90;;;;;;5079679;28;20205;-81
2021/07/04 03:21:03;;;;;;;6.33;5.60;;;15.80;99.90;;;;;;5079665;28;20209;-81
2021/07/04 03:23:28;;;;;;;6.83;5.33;;;15.70;99.90;;;;;;5079336;28;20169;-81
2021/07/04 03:25:55;;;;;;;8.07;5.93;;;15.70;99.90;;;;;;5079568;28;20173;-81
2021/07/04 03:28:21;;;;;;;7.70;5.80;;;15.60;99.90;;;;;;5080909;28;20197;-81
2021/07/04 03:30:46;;;;;;;6.70;5.50;;;15.60;99.90;;;;;;5079453;28;20669;-81
2021/07/04 03:33:12;;;;;;;6.20;5.20;;;15.70;99.90;;;;;;5080962;28;20242;-81
2021/07/04 03:35:37;;;;;;;7.40;5.00;;;15.60;99.90;;;;;;5081163;28;20716;-81
2021/07/04 03:38:03;;;;;;;7.70;5.07;;;15.60;99.90;;;;;;5079802;28;20646;-81
2021/07/04 03:40:29;;;;;;;5.93;4.73;;;15.60;99.90;;;;;;5080759;28;20681;-81
2021/07/04 03:42:54;;;;;;;5.67;4.57;;;15.60;99.90;;;;;;5080515;28;20177;-81
2021/07/04 03:45:20;;;;;;;5.37;4.67;;;15.60;99.90;;;;;;5081382;28;20248;-81
2021/07/04 03:47:46;;;;;;;4.70;4.30;;;15.60;99.90;;;;;;5083545;28;20174;-81
2021/07/04 03:50:12;;;;;;;5.30;4.60;;;15.50;99.90;;;;;;5085006;28;20362;-81
2021/07/04 03:52:38;;;;;;;5.47;4.13;;;15.50;99.90;;;;;;5078251;28;20276;-81
2021/07/04 03:55:05;;;;;;;5.60;4.33;;;15.60;99.90;;;;;;5079700;28;20661;-81
2021/07/04 03:57:32;;;;;;;4.87;4.27;;;15.60;99.90;;;;;;5078378;28;20184;-81
2021/07/04 03:59:59;;;;;;;5.57;4.33;;;15.60;99.90;;;;;;5078618;28;20681;-81
2021/07/04 04:02:26;;;;;;;5.60;4.27;;;15.60;99.90;;;;;;5079958;28;20173;-81
2021/07/04 04:04:55;;;;;;;4.70;4.23;;;15.60;99.90;;;;;;5079868;28;20180;-81
2021/07/04 04:07:22;;;;;;;4.23;3.77;;;15.60;99.90;;;;;;5079217;28;20634;-81
2021/07/04 04:09:49;;;;;;;5.20;4.03;;;15.50;99.90;;;;;;5078391;28;20588;-81
2021/07/04 04:12:14;;;;;;;6.03;4.63;;;15.50;99.90;;;;;;5079979;28;20176;-81
2021/07/04 04:14:40;;;;;;;7.63;4.43;;;15.50;99.90;;;;;;5079904;28;20173;-81
2021/07/04 04:17:06;;;;;;;4.90;4.40;;;15.50;99.90;;;;;;5080022;28;20200;-81
2021/07/04 04:19:33;;;;;;;4.93;4.43;;;15.50;99.90;;;;;;5079248;28;20215;-81
2021/07/04 04:21:58;;;;;;;5.80;4.90;;;15.50;99.90;;;;;;5079869;28;20541;-81
2021/07/04 04:24:24;;;;;;;5.00;4.60;;;15.50;99.90;;;;;;5078682;28;20181;-81
2021/07/04 04:26:49;;;;;;;5.40;4.90;;;15.50;99.90;;;;;;5078377;28;20527;-81
2021/07/04 04:29:15;;;;;;;5.73;4.80;;;15.60;99.90;;;;;;5079275;28;20205;-82
2021/07/04 04:31:41;;;;;;;6.43;4.57;;;15.60;99.90;;;;;;5081585;28;20603;-81
2021/07/04 04:34:07;;;;;;;5.50;4.67;;;15.50;99.90;;;;;;5077345;28;20268;-81
2021/07/04 04:36:32;;;;;;;4.90;4.40;;;15.50;99.90;;;;;;5076658;28;20177;-81
2021/07/04 04:38:58;;;;;;;6.43;4.70;;;15.50;99.90;;;;;;5078328;28;20193;-81
2021/07/04 04:41:24;;;;;;;5.20;4.60;;;15.50;99.90;;;;;;5075650;28;20200;-81
2021/07/04 04:43:49;;;;;;;5.73;4.90;;;15.50;99.90;;;;;;5077012;28;20173;-81
2021/07/04 04:46:15;;;;;;;4.50;4.10;;;15.60;99.90;;;;;;5076459;28;20184;-81
2021/07/04 04:48:43;;;;;;;4.87;4.37;;;15.60;99.90;;;;;;5086759;28;20193;-81
2021/07/04 04:51:09;;;;;;;10.17;4.17;;;15.60;99.90;;;;;;5080374;28;20181;-81
2021/07/04 04:53:34;;;;;;;5.40;4.47;;;15.60;99.90;;;;;;5080530;28;20179;-81
2021/07/04 04:56:00;;;;;;;5.17;4.50;;;15.60;99.90;;;;;;5080333;28;20176;-81
2021/07/04 04:58:26;;;;;;;7.07;4.70;;;15.60;99.90;;;;;;5076522;28;20208;-81
2021/07/04 05:00:51;;;;;;;4.80;4.30;;;15.70;99.90;;;;;;5080402;28;20200;-82
2021/07/04 05:03:17;;;;;;;5.43;4.40;;;15.70;99.90;;;;;;5080440;28;20176;-82
2021/07/04 05:05:43;;;;;;;5.00;4.20;;;15.60;99.90;;;;;;5082721;28;20168;-81
2021/07/04 05:08:09;;;;;;;10.57;5.50;;;15.70;99.90;;;;;;5077014;28;20268;-81
2021/07/04 05:10:34;;;;;;;5.13;4.33;;;15.70;99.90;;;;;;5076768;28;20230;-81
2021/07/04 05:13:02;;;;;;;6.27;5.10;;;15.70;99.90;;;;;;5078813;28;20181;-81
2021/07/04 05:15:27;;;;;;;5.57;4.27;;;15.80;99.90;;;;;;5077347;28;20610;-81
2021/07/04 05:17:53;;;;;;;5.47;4.70;;;15.80;99.90;;;;;;5078066;28;20176;-81
2021/07/04 05:20:19;;;;;;;6.37;4.87;;;15.80;99.90;;;;;;5076641;28;20200;-81
2021/07/04 05:22:44;;;;;;;5.07;4.23;;;15.90;99.90;;;;;;5075964;28;20184;-81
2021/07/04 05:25:11;;;;;;;6.80;4.87;;;15.90;99.90;;;;;;5077439;28;20176;-81
2021/07/04 05:27:37;;;;;;;4.27;3.87;;;15.90;99.90;;;;;;5079727;28;20184;-80
2021/07/04 05:30:04;;;;;;;5.10;4.60;;;15.90;99.90;;;;;;5077894;28;20273;-81
2021/07/04 05:32:30;;;;;;;4.80;4.30;;;15.90;99.90;;;;;;5079346;28;20180;-81
2021/07/04 05:34:55;;;;;;;4.60;4.13;;;15.90;99.90;;;;;;5078599;28;20187;-81
2021/07/04 05:37:21;;;;;;;5.87;4.73;;;16.00;99.90;;;;;;5078608;28;20238;-81
2021/07/04 05:39:47;;;;;;;7.87;4.60;;;16.00;99.90;;;;;;5079505;28;20295;-82
2021/07/04 05:42:12;;;;;;;5.20;4.70;;;16.10;99.90;;;;;;5083270;28;20169;-81
2021/07/04 05:44:38;;;;;;;10.30;4.27;;;16.10;99.90;;;;;;5081392;28;20177;-81
2021/07/04 05:47:04;;;;;;;4.77;4.27;;;16.10;99.90;;;;;;5076415;28;20234;-81
2021/07/04 05:49:30;;;;;;;5.10;4.43;;;16.10;99.90;;;;;;5077475;28;20222;-81
2021/07/04 05:51:56;;;;;;;5.20;4.33;;;16.10;99.90;;;;;;5077730;28;20177;-81
2021/07/04 05:54:21;;;;;;;7.47;4.83;;;16.10;99.90;;;;;;5077216;28;20185;-81
2021/07/04 05:56:47;;;;;;;5.77;3.97;;;16.00;99.90;;;;;;5078960;28;20172;-81
2021/07/04 05:59:13;;;;;;;4.57;3.90;;;16.00;99.90;;;;;;5078620;28;20201;-81
2021/07/04 06:01:38;;;;;;;4.87;4.37;;;16.10;99.90;;;;;;5077081;28;20590;-81
2021/07/04 06:04:04;;;;;;;6.67;5.40;;;16.20;99.90;;;;;;5077250;28;20176;-81
2021/07/04 06:06:30;;;;;;;5.20;4.70;;;16.30;99.90;;;;;;5078267;28;20177;-81
2021/07/04 06:08:56;;;;;;;5.07;4.10;;;16.50;99.90;;;;;;5077209;28;20237;-81
2021/07/04 06:11:21;;;;;;;5.63;5.03;;;16.60;99.90;;;;;;5078235;28;20183;-81
2021/07/04 06:13:47;;;;;;;4.80;4.10;;;16.80;99.90;;;;;;5078978;28;20176;-81
2021/07/04 06:16:13;;;;;;;4.87;4.27;;;16.90;99.90;;;;;;5077349;28;20177;-82
2021/07/04 06:18:38;;;;;;;4.40;3.80;;;17.00;99.90;;;;;;5076185;28;20249;-81
2021/07/04 06:21:04;;;;;;;4.27;3.87;;;17.10;99.90;;;;;;5078376;28;20200;-81
2021/07/04 06:23:31;;;;;;;6.57;3.70;;;17.20;99.90;;;;;;5077684;28;20177;-81
2021/07/04 06:25:56;;;;;;;6.20;3.93;;;17.30;99.90;;;;;;5078261;28;20200;-81
2021/07/04 06:28:22;;;;;;;5.40;3.87;;;17.30;99.90;;;;;;5078375;28;20215;-81
2021/07/04 06:30:48;;;;;;;4.77;3.70;;;17.30;99.90;;;;;;5078532;28;20638;-81
2021/07/04 06:33:14;;;;;;;3.93;3.53;;;17.30;99.90;;;;;;5076587;28;20585;-81
2021/07/04 06:35:40;;;;;;;3.77;3.30;;;17.40;99.90;;;;;;5074593;28;20181;-81
2021/07/04 06:38:05;;;;;;;3.97;3.57;;;17.50;99.90;;;;;;5075745;28;20639;-81
2021/07/04 06:40:31;;;;;;;4.13;3.60;;;17.50;99.90;;;;;;5075927;28;20211;-81
2021/07/04 06:42:57;;;;;;;4.00;3.60;;;17.60;99.90;;;;;;5078218;28;20226;-81
2021/07/04 06:45:23;;;;;;;5.43;3.40;;;17.60;99.90;;;;;;5079387;28;20177;-81
2021/07/04 06:47:49;;;;;;;4.30;3.73;;;17.60;99.90;;;;;;5079774;28;20230;-81
2021/07/04 06:50:17;;;;;;;5.40;3.43;;;17.50;99.90;;;;;;5078591;28;20210;-81
2021/07/04 06:52:44;;;;;;;4.60;4.10;;;17.40;99.90;;;;;;5086873;28;20223;-81
2021/07/04 06:55:10;;;;;;;3.97;3.60;;;17.40;99.90;;;;;;5081214;28;20173;-81
2021/07/04 06:57:36;;;;;;;4.90;4.40;;;17.30;99.90;;;;;;5081289;28;20181;-81
2021/07/04 07:00:05;;;;;;;4.20;3.80;;;17.30;99.90;;;;;;5079102;28;20215;-81
2021/07/04 07:02:30;;;;;;;4.70;3.73;;;17.40;99.90;;;;;;5081283;28;20169;-81
2021/07/04 07:04:56;;;;;;;6.60;3.43;;;17.50;99.90;;;;;;5080227;28;20183;-81
2021/07/04 07:07:22;;;;;;;3.60;3.30;;;17.50;99.90;;;;;;5079594;28;20188;-81
2021/07/04 07:09:49;;;;;;;4.20;3.80;;;17.60;99.90;;;;;;5080527;28;20255;-81
2021/07/04 07:12:15;;;;;;;6.37;3.57;;;17.70;99.90;;;;;;5080000;28;20778;-81
2021/07/04 07:14:40;;;;;;;4.40;3.40;;;17.80;99.90;;;;;;5079798;28;20232;-81
2021/07/04 07:17:06;;;;;;;3.67;3.37;;;17.90;99.90;;;;;;5080927;28;20660;-82
2021/07/04 07:19:32;;;;;;;4.10;3.60;;;18.10;99.90;;;;;;5080779;28;20563;-82
2021/07/04 07:21:58;;;;;;;4.83;4.07;;;18.20;99.90;;;;;;5080226;28;20181;-82
2021/07/04 07:24:23;;;;;;;3.20;2.90;;;18.30;99.90;;;;;;5080521;28;20173;-82
2021/07/04 07:26:49;;;;;;;3.60;3.30;;;18.30;99.90;;;;;;5079358;28;20273;-81
2021/07/04 07:29:15;;;;;;;5.40;3.03;;;18.30;99.90;;;;;;5081034;28;20284;-82
2021/07/04 07:31:40;;;;;;;3.53;3.20;;;18.30;99.90;;;;;;5081033;28;20182;-82
2021/07/04 07:34:06;;;;;;;3.50;3.00;;;18.40;99.90;;;;;;5081827;28;20227;-82
2021/07/04 07:36:32;;;;;;;3.13;2.80;;;18.40;99.90;;;;;;5082364;28;20207;-82
2021/07/04 07:38:58;;;;;;;3.07;2.77;;;18.50;99.90;;;;;;5083301;28;20609;-81
2021/07/04 07:41:23;;;;;;;3.60;3.10;;;18.50;99.90;;;;;;5077094;28;20179;-82
2021/07/04 07:43:50;;;;;;;5.60;2.87;;;18.50;99.90;;;;;;5078318;28;20170;-82
2021/07/04 07:46:16;;;;;;;3.53;3.17;;;18.60;99.90;;;;;;5077561;28;20546;-82
2021/07/04 07:48:42;;;;;;;2.67;2.40;;;18.70;99.90;;;;;;5077009;28;20228;-81
2021/07/04 07:51:08;;;;;;;2.33;2.13;;;19.00;99.90;;;;;;5076973;28;20191;-82
2021/07/04 07:53:34;;;;;;;2.60;2.10;;;19.20;99.90;;;;;;5077345;28;20257;-82
2021/07/04 07:56:00;;;;;;;1.97;1.80;;;19.40;99.90;;;;;;5077198;28;20178;-81
2021/07/04 07:58:25;;;;;;;2.63;2.43;;;19.60;99.90;;;;;;5078580;28;20680;-82
2021/07/04 08:00:51;;;;;;;2.43;2.23;;;19.70;99.90;;;;;;5077980;28;20204;-82
2021/07/04 08:03:17;;;;;;;3.03;2.70;;;19.90;99.90;;;;;;5078455;28;20198;-79
2021/07/04 08:05:43;;;;;;;2.67;2.37;;;20.10;99.90;;;;;;5077550;28;20219;-79
2021/07/04 08:08:09;;;;;;;3.00;2.73;;;20.20;99.90;;;;;;5077112;28;20216;-80
2021/07/04 08:10:35;;;;;;;3.33;2.63;;;20.10;99.90;;;;;;5077793;28;20184;-79
2021/07/04 08:13:02;;;;;;;5.23;2.60;;;20.20;99.90;;;;;;5076058;28;20274;-82
2021/07/04 08:15:28;;;;;;;3.60;2.50;;;20.20;99.90;;;;;;5077329;28;20188;-82
2021/07/04 08:17:54;;;;;;;3.07;2.77;;;20.00;99.90;;;;;;5077107;28;20180;-80
2021/07/04 08:20:20;;;;;;;2.80;2.50;;;19.80;99.90;;;;;;5077232;28;20686;-80
2021/07/04 08:22:46;;;;;;;2.63;2.43;;;19.80;99.90;;;;;;5075915;28;20181;-80
2021/07/04 08:25:13;;;;;;;2.77;2.57;;;19.70;99.90;;;;;;5076129;28;20186;-80
2021/07/04 08:27:38;;;;;;;2.70;2.47;;;19.80;99.90;;;;;;5075634;28;20711;-80
2021/07/04 08:30:06;;;;;;;3.97;2.70;;;19.90;99.90;;;;;;5076899;28;20193;-80
2021/07/04 08:32:33;;;;;;;6.37;2.70;;;19.90;99.90;;;;;;5075937;28;20187;-79
2021/07/04 08:34:59;;;;;;;2.20;2.00;;;19.80;99.90;;;;;;5075803;28;20227;-79
2021/07/04 08:37:24;;;;;;;6.70;2.70;;;19.70;99.90;;;;;;5076855;28;20200;-79
2021/07/04 08:39:50;;;;;;;2.90;2.53;;;19.60;99.90;;;;;;5075103;28;20368;-79
2021/07/04 08:42:18;;;;;;;2.53;2.33;;;19.50;99.90;;;;;;5076935;28;20260;-79
2021/07/04 08:44:52;;;;;;;2.77;2.57;;;19.40;99.90;;;;;;5075373;28;20211;-79
2021/07/04 08:47:20;;;;;;;2.50;2.30;;;19.80;99.90;;;;;;5075028;28;20331;-79
2021/07/04 08:49:48;;;;;;;3.00;2.53;;;20.00;99.90;;;;;;5091585;28;20278;-79
2021/07/04 08:52:14;;;;;;;3.00;2.27;;;20.30;99.90;;;;;;5096335;28;20267;-79
2021/07/04 08:54:40;;;;;;;2.70;2.43;;;20.70;99.90;;;;;;5095775;28;20260;-79
2021/07/04 08:57:10;;;;;;;2.30;2.10;;;21.00;99.90;;;;;;5094220;28;20181;-79
2021/07/04 08:59:40;;;;;;;2.70;2.40;;;21.10;99.90;;;;;;5105154;28;20200;-79
2021/07/04 09:02:11;;;;;;;2.50;2.13;;;20.90;99.90;;;;;;5094170;28;20168;-79
2021/07/04 09:04:38;;;;;;;3.10;2.60;;;20.80;99.90;;;;;;5095758;28;20182;-79
2021/07/04 09:07:05;;;;;;;4.67;2.00;;;20.70;99.90;;;;;;5095901;28;20176;-80
2021/07/04 09:09:35;;;;;;;2.20;1.90;;;20.60;99.90;;;;;;5098137;28;20242;-80
2021/07/04 09:12:11;;;;;;;2.23;2.03;;;20.80;99.90;;;;;;5096259;28;20172;-81
2021/07/04 09:14:49;;;;;;;2.73;1.90;;;20.80;99.90;;;;;;5097518;28;20183;-79
2021/07/04 09:17:16;;;;;;;2.10;1.90;;;21.00;99.90;;;;;;5097208;28;20235;-79
2021/07/04 09:19:57;;;;;;;2.27;2.07;;;21.20;99.90;;;;;;5087984;28;20598;-79
2021/07/04 09:22:52;;;;;;;2.13;1.97;;;21.50;99.90;;;;;;5076976;28;20181;-79
2021/07/04 09:25:27;;;;;;;2.50;2.30;;;21.80;99.90;;;;;;5093856;28;20180;-80
2021/07/04 09:28:01;;;;;;;2.43;2.20;;;21.80;99.90;;;;;;5081645;28;20191;-80
2021/07/04 09:30:36;;;;;;;2.80;2.50;;;21.50;99.90;;;;;;5088950;28;20177;-79
2021/07/04 09:33:22;;;;;;;2.40;2.20;;;21.20;99.90;;;;;;5091295;28;20176;-79
2021/07/04 09:35:59;;;;;;;2.40;2.20;;;21.10;99.90;;;;;;5092317;28;20180;-79
2021/07/04 09:38:36;;;;;;;3.70;2.80;;;21.00;99.90;;;;;;5094864;28;20204;-79
2021/07/04 09:41:04;;;;;;;3.53;3.23;;;20.90;99.90;;;;;;5096465;28;20188;-79
2021/07/04 09:43:32;;;;;;;2.63;2.43;;;20.90;99.90;;;;;;5086141;28;20210;-80
2021/07/04 09:45:59;;;;;;;3.30;2.87;;;21.30;99.90;;;;;;5088654;28;20180;-79
2021/07/04 09:48:27;;;;;;;2.93;2.43;;;21.50;99.90;;;;;;5080606;28;20228;-79
2021/07/04 09:50:55;;;;;;;2.90;2.60;;;21.60;99.90;;;;;;5083021;28;20180;-80
2021/07/04 09:53:22;;;;;;;3.70;2.80;;;21.60;99.90;;;;;;5096495;28;20172;-80
2021/07/04 09:55:51;;;;;;;2.90;2.60;;;21.70;99.90;;;;;;5096893;28;20264;-80
2021/07/04 09:58:17;;;;;;;2.60;2.40;;;21.80;99.90;;;;;;5089271;28;20207;-79
2021/07/04 10:00:45;;;;;;;3.40;2.30;;;21.90;99.90;;;;;;5096148;28;20192;-80
2021/07/04 10:03:13;;;;;;;2.63;2.37;;;21.90;99.90;;;;;;5088358;28;20634;-80
2021/07/04 10:05:59;;;;;;;3.03;2.30;;;21.80;99.90;;;;;;5084398;28;20177;-80
2021/07/04 10:08:35;;;;;;;2.53;2.33;;;21.80;99.90;;;;;;5088095;28;20203;-80
2021/07/04 10:11:09;;;;;;;2.90;2.50;;;22.20;99.90;;;;;;5097402;28;20247;-80
2021/07/04 10:13:39;;;;;;;3.90;2.33;;;22.70;99.90;;;;;;5088104;28;20176;-80
2021/07/04 10:16:06;;;;;;;2.17;1.97;;;23.20;99.90;;;;;;5098599;28;20161;-80
2021/07/04 10:18:32;;;;;;;2.70;2.50;;;23.30;99.90;;;;;;5100018;28;20661;-80
2021/07/04 10:20:59;;;;;;;2.97;2.67;;;23.20;99.90;;;;;;5099853;28;20689;-80
2021/07/04 10:23:26;;;;;;;2.80;2.23;;;22.80;99.90;;;;;;5100499;28;20176;-80
2021/07/04 10:25:55;;;;;;;2.37;2.17;;;22.60;99.90;;;;;;5099537;28;20176;-80
2021/07/04 10:28:27;;;;;;;2.90;2.07;;;22.60;99.90;;;;;;5099953;28;20315;-80
2021/07/04 10:30:53;;;;;;;2.27;1.93;;;22.60;99.90;;;;;;5099324;28;20180;-80
2021/07/04 10:33:26;;;;;;;2.60;2.13;;;22.50;99.90;;;;;;5098384;28;20234;-79
2021/07/04 10:35:51;;;;;;;2.10;1.90;;;22.40;99.90;;;;;;5100343;28;20567;-79
2021/07/04 10:38:18;;;;;;;2.40;2.20;;;22.20;99.90;;;;;;5097344;28;20207;-79
2021/07/04 10:40:44;;;;;;;2.10;1.90;;;22.00;99.90;;;;;;5079239;28;20249;-79
2021/07/04 10:43:47;;;;;;;2.97;2.30;;;22.00;99.90;;;;;;5077688;28;20184;-81
2021/07/04 10:46:13;;;;;;;2.20;2.00;;;21.90;99.90;;;;;;5078883;28;20645;-79
2021/07/04 10:48:54;;;;;;;2.50;2.20;;;21.80;99.90;;;;;;5092691;28;20192;-79
2021/07/04 10:51:22;;;;;;;2.47;2.27;;;21.90;99.90;;;;;;5079774;28;20545;-79
2021/07/04 10:53:49;;;;;;;2.30;2.10;;;22.20;99.90;;;;;;5097778;28;20675;-79
2021/07/04 10:56:33;;;;;;;3.30;2.10;;;22.20;99.90;;;;;;5091145;28;20198;-79
2021/07/04 10:59:02;;;;;;;2.70;2.50;;;22.20;99.90;;;;;;5077879;28;20196;-79
2021/07/04 11:01:59;;;;;;;2.53;2.33;;;22.30;99.90;;;;;;5084939;28;20186;-79
2021/07/04 11:04:30;;;;;;;2.00;1.80;;;22.30;99.90;;;;;;5078131;28;20173;-79
2021/07/04 11:06:58;;;;;;;2.33;2.13;;;22.20;99.90;;;;;;5078612;28;20175;-79
2021/07/04 11:09:24;;;;;;;2.40;2.20;;;22.10;99.90;;;;;;5078374;28;20196;-79
2021/07/04 11:11:50;;;;;;;3.23;1.97;;;22.00;99.90;;;;;;5079379;28;20173;-79
2021/07/04 11:14:16;;;;;;;2.90;2.30;;;21.90;99.90;;;;;;5080340;28;20378;-80
2021/07/04 11:17:02;;;;;;;2.83;2.30;;;21.80;99.90;;;;;;5079202;28;20581;-79
2021/07/04 11:19:28;;;;;;;4.73;2.60;;;22.10;99.90;;;;;;5080148;28;20751;-79
2021/07/04 11:21:57;;;;;;;3.13;2.60;;;22.20;99.90;;;;;;5077719;28;20177;-79
2021/07/04 11:24:27;;;;;;;2.93;2.67;;;22.40;99.90;;;;;;5077404;28;20178;-79
2021/07/04 11:27:23;;;;;;;3.10;2.43;;;22.80;99.90;;;;;;5077754;28;20196;-79
2021/07/04 11:30:17;;;;;;;2.43;2.20;;;23.30;99.90;;;;;;5075631;28;20210;-80
2021/07/04 11:32:42;;;;;;;1.93;1.83;;;23.40;99.90;;;;;;5077602;28;20178;-79
2021/07/04 11:35:08;;;;;;;2.27;2.07;;;23.30;99.90;;;;;;5078660;28;20190;-79
2021/07/04 11:37:42;;;;;;;2.30;2.10;;;23.50;99.90;;;;;;5077822;28;20658;-81
2021/07/04 11:40:08;;;;;;;2.23;1.97;;;23.50;99.90;;;;;;5078195;28;20705;-79
2021/07/04 11:42:34;;;;;;;2.60;2.30;;;23.40;99.90;;;;;;5077376;28;20180;-79
2021/07/04 11:44:59;;;;;;;2.27;2.07;;;23.20;99.90;;;;;;5078783;28;20171;-79
2021/07/04 11:47:25;;;;;;;3.87;2.20;;;22.80;99.90;;;;;;5077801;28;20541;-80
2021/07/04 11:49:51;;;;;;;3.00;2.70;;;22.90;99.90;;;;;;5078531;28;20196;-80
2021/07/04 11:52:20;;;;;;;3.07;2.23;;;22.90;99.90;;;;;;5077783;28;20174;-79
2021/07/04 11:54:46;;;;;;;2.90;2.70;;;23.00;99.90;;;;;;5078763;28;20171;-79
2021/07/04 11:57:30;;;;;;;2.40;2.20;;;22.90;99.90;;;;;;5076707;28;20173;-79
2021/07/04 12:00:01;;;;;;;2.90;2.17;;;22.90;99.90;;;;;;5077791;28;20290;-79
2021/07/04 12:02:28;;;;;;;2.30;2.10;;;22.50;99.90;;;;;;5078069;28;20236;-79
2021/07/04 12:04:54;;;;;;;3.17;1.93;;;22.30;99.90;;;;;;5076771;28;20218;-79
2021/07/04 12:07:25;;;;;;;1.80;1.70;;;22.10;99.90;;;;;;5077730;28;20169;-79
2021/07/04 12:09:55;;;;;;;1.90;1.80;;;21.70;99.90;;;;;;5077327;28;20188;-79
2021/07/04 12:12:32;;;;;;;3.00;2.10;;;21.50;99.90;;;;;;5076465;28;20164;-79
2021/07/04 12:15:05;;;;;;;2.00;1.80;;;21.40;99.90;;;;;;5077532;28;20199;-79
2021/07/04 12:17:40;;;;;;;2.33;1.80;;;21.40;99.90;;;;;;5076412;28;20179;-79
2021/07/04 12:20:16;;;;;;;2.50;2.30;;;21.30;99.90;;;;;;5076163;28;20255;-79
2021/07/04 12:22:46;;;;;;;2.07;1.80;;;21.40;99.90;;;;;;5075994;28;20174;-79
2021/07/04 12:25:30;;;;;;;2.13;1.97;;;21.40;99.90;;;;;;5077715;28;20211;-79
2021/07/04 12:27:58;;;;;;;1.73;1.63;;;21.50;99.90;;;;;;5077802;28;20184;-79
2021/07/04 12:30:28;;;;;;;3.87;2.33;;;21.50;99.90;;;;;;5076994;28;20218;-79
2021/07/04 12:33:07;;;;;;;1.90;1.80;;;21.50;99.90;;;;;;5075564;28;20179;-79
2021/07/04 12:35:44;;;;;;;2.20;1.80;;;21.50;99.90;;;;;;5076998;28;20202;-79
2021/07/04 12:38:15;;;;;;;2.77;1.70;;;21.50;99.90;;;;;;5076563;28;20248;-79
2021/07/04 12:40:55;;;;;;;2.37;1.87;;;21.60;99.90;;;;;;5076328;28;20185;-79
2021/07/04 12:43:30;;;;;;;2.47;1.93;;;21.70;99.90;;;;;;5075759;28;20173;-79
2021/07/04 12:46:01;;;;;;;2.00;1.80;;;21.80;99.90;;;;;;5076576;28;20169;-79
2021/07/04 12:48:28;;;;;;;2.37;2.00;;;21.90;99.90;;;;;;5076226;28;20184;-79